createdAt,value
2018-10-19T00:02:00.187Z,13.80
2018-10-19T00:04:27.807Z,13.90
2018-10-19T00:06:55.479Z,14.00
2018-10-19T00:09:23.224Z,14.00
2018-10-19T00:11:50.931Z,14.00
2018-10-19T00:14:18.655Z,14.00
2018-10-19T00:16:46.336Z,14.00
2018-10-19T00:19:14.531Z,14.00
2018-10-19T00:21:42.287Z,14.00
2018-10-19T00:24:09.941Z,14.00
2018-10-19T00:26:37.588Z,14.00
2018-10-19T00:29:05.510Z,13.90
2018-10-19T00:31:33.260Z,13.90
2018-10-19T00:34:00.951Z,13.90
2018-10-19T00:36:28.669Z,13.80
2018-10-19T00:38:56.415Z,13.80
2018-10-19T00:41:24.024Z,13.90
2018-10-19T00:43:51.812Z,13.90
2018-10-19T00:46:19.518Z,13.80
2018-10-19T00:48:47.189Z,13.90
2018-10-19T00:51:14.866Z,13.90
2018-10-19T00:53:42.482Z,14.00
2018-10-19T00:56:10.265Z,13.90
2018-10-19T00:58:37.972Z,13.90
2018-10-19T01:01:05.633Z,13.90
2018-10-19T01:03:33.278Z,13.80
2018-10-19T01:06:00.876Z,13.80
2018-10-19T01:08:28.515Z,13.60
2018-10-19T01:10:56.174Z,13.70
2018-10-19T01:13:23.795Z,13.80
2018-10-19T01:15:51.609Z,13.70
2018-10-19T01:18:19.298Z,13.60
2018-10-19T01:20:46.957Z,13.80
2018-10-19T01:23:15.034Z,13.80
2018-10-19T01:25:42.649Z,13.80
2018-10-19T01:28:11.105Z,13.70
2018-10-19T01:30:38.844Z,13.80
2018-10-19T01:33:06.550Z,13.80
2018-10-19T01:35:34.163Z,13.80
2018-10-19T01:38:01.734Z,13.90
2018-10-19T01:40:29.375Z,13.80
2018-10-19T01:42:57.005Z,13.90
2018-10-19T01:45:24.807Z,13.90
2018-10-19T01:47:52.439Z,13.80
2018-10-19T01:50:20.108Z,13.80
2018-10-19T01:52:47.827Z,13.90
2018-10-19T01:55:15.458Z,13.70
2018-10-19T01:57:43.056Z,13.80
2018-10-19T02:00:10.782Z,13.80
2018-10-19T02:02:38.479Z,13.90
2018-10-19T02:05:06.190Z,14.00
2018-10-19T02:07:33.785Z,14.00
2018-10-19T02:10:01.488Z,14.00
2018-10-19T02:12:29.145Z,14.00
2018-10-19T02:14:57.018Z,14.00
2018-10-19T02:17:24.627Z,14.00
2018-10-19T02:19:52.288Z,13.90
2018-10-19T02:22:19.979Z,13.90
2018-10-19T02:24:47.622Z,13.90
2018-10-19T02:27:15.321Z,13.80
2018-10-19T02:29:42.929Z,13.80
2018-10-19T02:32:10.631Z,13.80
2018-10-19T02:34:38.293Z,13.80
2018-10-19T02:37:06.402Z,13.80
2018-10-19T02:39:34.101Z,13.80
2018-10-19T02:42:01.861Z,13.80
2018-10-19T02:44:29.664Z,13.80
2018-10-19T02:46:57.448Z,13.80
2018-10-19T02:49:25.149Z,13.70
2018-10-19T02:51:52.899Z,13.70
2018-10-19T02:54:20.582Z,13.70
2018-10-19T02:56:48.239Z,13.70
2018-10-19T02:59:15.894Z,13.70
2018-10-19T03:01:43.521Z,13.70
2018-10-19T03:04:11.199Z,13.70
2018-10-19T03:06:38.848Z,13.70
2018-10-19T03:09:09.425Z,13.70
2018-10-19T03:11:37.103Z,13.70
2018-10-19T03:14:04.881Z,13.70
2018-10-19T03:16:47.005Z,13.80
2018-10-19T03:19:14.715Z,13.80
2018-10-19T03:21:42.745Z,13.80
2018-10-19T03:24:10.413Z,13.90
2018-10-19T03:26:38.121Z,13.90
2018-10-19T03:29:05.829Z,13.90
2018-10-19T03:31:33.825Z,13.90
2018-10-19T03:34:01.514Z,13.90
2018-10-19T03:36:29.137Z,13.90
2018-10-19T03:38:56.920Z,13.90
2018-10-19T03:41:25.630Z,13.90
2018-10-19T03:43:53.308Z,13.90
2018-10-19T03:46:20.956Z,13.80
2018-10-19T03:48:48.567Z,13.80
2018-10-19T03:51:16.274Z,13.80
2018-10-19T03:53:43.954Z,13.90
2018-10-19T03:56:11.593Z,13.90
2018-10-19T03:58:39.280Z,13.80
2018-10-19T04:01:07.048Z,13.80
2018-10-19T04:03:34.866Z,13.70
2018-10-19T04:06:02.570Z,13.70
2018-10-19T04:08:30.376Z,13.60
2018-10-19T04:10:58.101Z,13.60
2018-10-19T04:13:25.799Z,13.50
2018-10-19T04:15:53.432Z,13.50
2018-10-19T04:18:21.193Z,13.40
2018-10-19T04:20:49.138Z,13.40
2018-10-19T04:23:16.855Z,13.40
2018-10-19T04:25:44.552Z,13.30
2018-10-19T04:28:12.288Z,13.20
2018-10-19T04:30:39.962Z,13.20
2018-10-19T04:33:07.771Z,13.20
2018-10-19T04:35:35.407Z,13.20
2018-10-19T04:38:03.329Z,13.20
2018-10-19T04:40:31.124Z,13.20
2018-10-19T04:42:58.815Z,13.30
2018-10-19T04:45:26.689Z,13.20
2018-10-19T04:47:54.290Z,13.20
2018-10-19T04:50:21.972Z,13.10
2018-10-19T04:52:49.959Z,13.10
2018-10-19T04:55:19.875Z,13.20
2018-10-19T04:57:47.775Z,13.20
2018-10-19T05:00:17.268Z,13.20
2018-10-19T05:02:45.092Z,13.20
2018-10-19T05:05:12.991Z,13.10
2018-10-19T05:07:40.673Z,13.20
2018-10-19T05:10:09.075Z,13.20
2018-10-19T05:12:36.949Z,13.20
2018-10-19T05:15:06.220Z,13.10
2018-10-19T05:17:34.010Z,13.10
2018-10-19T05:20:01.725Z,13.10
2018-10-19T05:22:29.396Z,13.10
2018-10-19T05:24:57.008Z,13.10
2018-10-19T05:27:24.705Z,13.10
2018-10-19T05:29:52.362Z,13.10
2018-10-19T05:32:20.064Z,13.10
2018-10-19T05:34:47.693Z,13.10
2018-10-19T05:37:15.355Z,13.10
2018-10-19T05:39:43.079Z,13.10
2018-10-19T05:42:10.722Z,13.10
2018-10-19T05:44:38.445Z,13.10
2018-10-19T05:47:06.388Z,13.20
2018-10-19T05:49:33.986Z,13.10
2018-10-19T05:52:01.702Z,13.10
2018-10-19T05:54:29.299Z,13.20
2018-10-19T05:56:56.983Z,13.10
2018-10-19T05:59:24.646Z,13.00
2018-10-19T06:01:52.251Z,13.20
2018-10-19T06:04:19.944Z,13.20
2018-10-19T06:06:47.820Z,13.30
2018-10-19T06:09:15.745Z,13.30
2018-10-19T06:11:43.584Z,13.30
2018-10-19T06:14:11.276Z,13.30
2018-10-19T06:16:39.445Z,13.40
2018-10-19T06:19:08.273Z,13.40
2018-10-19T06:21:35.906Z,13.40
2018-10-19T06:24:04.362Z,13.40
2018-10-19T06:26:32.088Z,13.40
2018-10-19T06:28:59.674Z,13.50
2018-10-19T06:31:27.292Z,13.50
2018-10-19T06:33:54.914Z,13.40
2018-10-19T06:36:22.549Z,13.40
2018-10-19T06:38:50.198Z,13.40
2018-10-19T06:41:17.915Z,13.40
2018-10-19T06:43:45.429Z,13.50
2018-10-19T06:46:13.133Z,13.50
2018-10-19T06:48:40.725Z,13.40
2018-10-19T06:51:08.375Z,13.40
2018-10-19T06:53:36.164Z,13.40
2018-10-19T06:56:03.783Z,13.30
2018-10-19T06:58:31.454Z,13.20
2018-10-19T07:00:59.174Z,13.00
2018-10-19T07:03:26.833Z,12.90
2018-10-19T07:05:54.610Z,12.80
2018-10-19T07:08:22.286Z,12.70
2018-10-19T07:10:49.977Z,12.60
2018-10-19T07:13:17.655Z,12.50
2018-10-19T07:15:45.379Z,12.50
2018-10-19T07:18:12.984Z,12.50
2018-10-19T07:20:40.650Z,12.60
2018-10-19T07:23:08.351Z,12.70
2018-10-19T07:25:36.062Z,12.60
2018-10-19T07:28:04.155Z,12.60
2018-10-19T07:30:39.145Z,12.60
2018-10-19T07:33:06.841Z,12.60
2018-10-19T07:35:41.535Z,12.50
2018-10-19T07:38:09.176Z,12.40
2018-10-19T07:40:37.185Z,12.40
2018-10-19T07:43:05.183Z,12.50
2018-10-19T07:45:32.948Z,12.30
2018-10-19T07:48:00.861Z,12.20
2018-10-19T07:50:28.458Z,12.10
2018-10-19T07:52:56.194Z,12.10
2018-10-19T07:55:23.850Z,12.10
2018-10-19T07:57:51.787Z,12.20
2018-10-19T08:00:19.640Z,12.20
2018-10-19T08:02:47.275Z,12.30
2018-10-19T08:05:15.063Z,12.40
2018-10-19T08:07:42.680Z,12.40
2018-10-19T08:10:10.831Z,12.50
2018-10-19T08:12:38.606Z,12.60
2018-10-19T08:15:07.320Z,12.50
2018-10-19T08:17:35.066Z,12.30
2018-10-19T08:20:02.927Z,12.30
2018-10-19T08:22:30.676Z,12.20
2018-10-19T08:24:58.344Z,12.30
2018-10-19T08:27:26.118Z,12.20
2018-10-19T08:29:53.753Z,12.10
2018-10-19T08:32:21.559Z,12.10
2018-10-19T08:34:49.319Z,12.10
2018-10-19T08:37:16.941Z,12.10
2018-10-19T08:39:44.997Z,12.20
2018-10-19T08:42:12.879Z,12.20
2018-10-19T08:44:40.583Z,12.20
2018-10-19T08:47:08.455Z,12.30
2018-10-19T08:49:37.053Z,12.30
2018-10-19T08:52:04.743Z,12.30
2018-10-19T08:54:32.568Z,12.20
2018-10-19T08:57:00.292Z,12.30
2018-10-19T08:59:28.235Z,12.30
2018-10-19T09:01:55.969Z,12.30
2018-10-19T09:04:23.803Z,12.40
2018-10-19T09:06:51.526Z,12.30
2018-10-19T09:09:19.179Z,12.10
2018-10-19T09:11:47.045Z,12.10
2018-10-19T09:14:32.213Z,12.10
2018-10-19T09:16:59.995Z,12.00
2018-10-19T09:19:27.628Z,12.00
2018-10-19T09:21:55.208Z,12.10
2018-10-19T09:24:23.181Z,12.30
2018-10-19T09:26:50.804Z,12.30
2018-10-19T09:29:18.449Z,12.30
2018-10-19T09:31:46.149Z,12.20
2018-10-19T09:34:13.722Z,12.10
2018-10-19T09:36:41.535Z,12.40
2018-10-19T09:39:11.615Z,12.50
2018-10-19T09:41:39.505Z,12.50
2018-10-19T09:44:07.242Z,12.40
2018-10-19T09:46:38.246Z,12.40
2018-10-19T09:49:06.522Z,12.50
2018-10-19T09:51:34.766Z,12.50
2018-10-19T09:54:02.484Z,12.50
2018-10-19T09:56:30.221Z,12.60
2018-10-19T09:58:57.991Z,12.80
2018-10-19T10:01:28.723Z,12.90
2018-10-19T10:03:56.438Z,13.00
2018-10-19T10:06:24.214Z,13.10
2018-10-19T10:08:52.089Z,13.10
2018-10-19T10:11:20.037Z,13.20
2018-10-19T10:13:47.972Z,13.10
2018-10-19T10:16:15.663Z,13.00
2018-10-19T10:18:43.404Z,13.10
2018-10-19T10:21:11.400Z,13.00
2018-10-19T10:23:39.494Z,13.10
2018-10-19T10:26:07.310Z,13.10
2018-10-19T10:28:34.990Z,13.20
2018-10-19T10:31:02.820Z,13.20
2018-10-19T10:33:30.506Z,13.10
2018-10-19T10:35:58.169Z,13.10
2018-10-19T10:38:25.930Z,13.10
2018-10-19T10:40:53.621Z,13.20
2018-10-19T10:43:21.593Z,13.30
2018-10-19T10:45:49.335Z,13.40
2018-10-19T10:48:17.113Z,13.40
2018-10-19T10:50:44.819Z,13.30
2018-10-19T10:53:12.713Z,13.40
2018-10-19T10:55:40.409Z,13.50
2018-10-19T10:58:08.176Z,13.50
2018-10-19T11:00:35.983Z,13.40
2018-10-19T11:03:04.121Z,13.40
2018-10-19T11:05:32.195Z,13.30
2018-10-19T11:07:59.873Z,13.50
2018-10-19T11:10:27.499Z,13.60
2018-10-19T11:12:55.155Z,13.70
2018-10-19T11:15:22.821Z,13.70
2018-10-19T11:17:50.672Z,13.80
2018-10-19T11:20:18.398Z,13.90
2018-10-19T11:22:46.041Z,13.90
2018-10-19T11:25:13.778Z,13.80
2018-10-19T11:27:41.392Z,13.80
2018-10-19T11:30:09.136Z,13.90
2018-10-19T11:32:36.878Z,14.10
2018-10-19T11:35:05.369Z,14.00
2018-10-19T11:37:33.257Z,13.90
2018-10-19T11:40:38.583Z,13.90
2018-10-19T11:43:06.679Z,13.80
2018-10-19T11:45:35.228Z,13.90
2018-10-19T11:48:02.904Z,13.90
2018-10-19T11:50:30.768Z,14.00
2018-10-19T11:52:58.446Z,13.90
2018-10-19T11:55:26.244Z,14.00
2018-10-19T11:57:54.003Z,14.00
2018-10-19T12:00:21.651Z,14.00
2018-10-19T12:02:49.281Z,13.90
2018-10-19T12:05:17.119Z,13.90
2018-10-19T12:07:44.811Z,14.00
2018-10-19T12:10:13.257Z,14.00
2018-10-19T12:12:41.496Z,14.00
2018-10-19T12:15:10.588Z,14.00
2018-10-19T12:17:38.833Z,14.00
2018-10-19T12:20:09.330Z,14.30
2018-10-19T12:22:37.014Z,14.40
2018-10-19T12:25:06.631Z,14.40
2018-10-19T12:27:34.290Z,14.50
2018-10-19T12:30:01.960Z,14.40
2018-10-19T12:32:29.658Z,14.30
2018-10-19T12:34:57.303Z,14.40
2018-10-19T12:37:25.066Z,14.30
2018-10-19T12:39:52.704Z,14.20
2018-10-19T12:42:20.351Z,14.20
2018-10-19T12:44:48.029Z,14.20
2018-10-19T12:47:31.194Z,14.30
2018-10-19T12:49:58.957Z,14.30
2018-10-19T12:52:26.756Z,14.30
2018-10-19T12:54:54.635Z,14.30
2018-10-19T12:57:22.457Z,14.40
2018-10-19T12:59:50.112Z,14.40
2018-10-19T13:02:17.851Z,14.40
2018-10-19T13:04:45.573Z,14.20
2018-10-19T13:07:13.249Z,14.10
2018-10-19T13:09:41.001Z,14.10
2018-10-19T13:12:08.667Z,14.10
2018-10-19T13:14:36.313Z,14.20
2018-10-19T13:17:04.431Z,14.20
2018-10-19T13:19:32.126Z,14.40
2018-10-19T13:21:59.755Z,14.40
2018-10-19T13:24:27.551Z,14.40
2018-10-19T13:26:55.307Z,14.50
2018-10-19T13:29:23.283Z,14.60
2018-10-19T13:31:50.973Z,14.70
2018-10-19T13:34:18.615Z,14.80
2018-10-19T13:36:46.204Z,14.80
2018-10-19T13:39:14.166Z,14.80
2018-10-19T13:41:42.458Z,14.70
2018-10-19T13:44:10.607Z,14.60
2018-10-19T13:46:38.294Z,14.60
2018-10-19T13:49:06.126Z,14.70
2018-10-19T13:51:34.193Z,14.70
2018-10-19T13:54:02.159Z,14.50
2018-10-19T13:56:30.135Z,14.40
2018-10-19T13:58:57.899Z,14.30
2018-10-19T14:01:25.691Z,14.10
2018-10-19T14:03:53.340Z,14.20
2018-10-19T14:06:21.090Z,14.40
2018-10-19T14:08:48.814Z,14.50
2018-10-19T14:11:16.618Z,14.40
2018-10-19T14:13:44.257Z,14.40
2018-10-19T14:16:11.969Z,14.50
2018-10-19T14:18:39.632Z,14.50
2018-10-19T14:21:07.408Z,14.30
2018-10-19T14:23:35.170Z,14.00
2018-10-19T14:26:02.790Z,14.00
2018-10-19T14:28:30.522Z,14.00
2018-10-19T14:30:58.173Z,14.00
2018-10-19T14:33:26.053Z,14.10
2018-10-19T14:35:53.846Z,14.10
2018-10-19T14:38:21.472Z,14.20
2018-10-19T14:40:49.148Z,14.10
2018-10-19T14:43:18.142Z,14.00
2018-10-19T14:45:46.244Z,13.90
2018-10-19T14:48:13.994Z,13.90
2018-10-19T14:50:41.741Z,13.80
2018-10-19T14:53:09.504Z,13.70
2018-10-19T14:55:37.252Z,13.70
2018-10-19T14:58:05.103Z,13.50
2018-10-19T15:00:32.826Z,13.50
2018-10-19T15:05:27.073Z,13.40
2018-10-19T15:07:54.751Z,13.50
2018-10-19T15:10:22.619Z,13.50
2018-10-19T15:12:50.082Z,13.50
2018-10-19T15:15:19.005Z,13.50
2018-10-19T15:17:46.968Z,13.50
2018-10-19T15:20:15.101Z,13.50
2018-10-19T15:22:43.248Z,13.40
2018-10-19T15:25:11.291Z,13.50
2018-10-19T15:27:40.005Z,13.40
2018-10-19T15:30:09.328Z,13.40
2018-10-19T15:32:37.051Z,13.40
2018-10-19T15:35:06.663Z,13.50
2018-10-19T15:37:35.416Z,13.40
2018-10-19T15:40:03.241Z,13.50
2018-10-19T15:42:30.867Z,13.40
2018-10-19T15:44:58.530Z,13.50
2018-10-19T15:47:28.103Z,13.40
2018-10-19T15:49:57.085Z,13.40
2018-10-19T15:52:24.867Z,13.40
2018-10-19T15:54:52.980Z,13.30
2018-10-19T15:57:20.778Z,13.40
2018-10-19T15:59:48.406Z,13.40
2018-10-19T16:02:16.655Z,13.30
2018-10-19T16:04:44.839Z,13.40
2018-10-19T16:07:12.791Z,13.30
2018-10-19T16:09:40.552Z,13.40
2018-10-19T16:12:08.467Z,13.30
2018-10-19T16:14:36.175Z,13.30
2018-10-19T16:17:03.965Z,13.30
2018-10-19T16:19:32.580Z,13.30
2018-10-19T16:22:00.275Z,13.20
2018-10-19T16:24:28.004Z,13.20
2018-10-19T16:26:55.760Z,13.30
2018-10-19T16:29:23.439Z,13.30
2018-10-19T16:31:51.129Z,13.20
2018-10-19T16:34:18.898Z,13.20
2018-10-19T16:36:46.837Z,13.20
2018-10-19T16:39:14.646Z,13.10
2018-10-19T16:41:42.379Z,13.20
2018-10-19T16:44:10.143Z,13.20
2018-10-19T16:46:37.951Z,13.20
2018-10-19T16:49:05.698Z,13.30
2018-10-19T16:51:33.550Z,13.30
2018-10-19T16:54:01.327Z,13.30
2018-10-19T16:56:29.078Z,13.30
2018-10-19T16:58:56.816Z,13.20
2018-10-19T17:01:24.900Z,13.20
2018-10-19T17:03:52.700Z,13.30
2018-10-19T17:06:20.466Z,13.30
2018-10-19T17:08:48.419Z,13.20
2018-10-19T17:11:16.391Z,13.20
2018-10-19T17:13:47.224Z,13.20
2018-10-19T17:16:15.182Z,13.20
2018-10-19T17:18:42.893Z,13.10
2018-10-19T17:21:10.802Z,13.20
2018-10-19T17:23:38.572Z,13.20
2018-10-19T17:26:07.003Z,13.20
2018-10-19T17:28:34.825Z,13.20
2018-10-19T17:31:02.730Z,13.20
2018-10-19T17:33:30.722Z,13.20
2018-10-19T17:35:58.636Z,13.30
2018-10-19T17:38:26.751Z,13.10
2018-10-19T17:40:54.650Z,13.10
2018-10-19T17:43:22.556Z,13.00
2018-10-19T17:45:50.369Z,13.10
2018-10-19T17:48:18.175Z,13.00
2018-10-19T17:50:45.944Z,13.00
2018-10-19T17:53:13.853Z,13.00
2018-10-19T17:55:41.483Z,13.00
2018-10-19T17:58:09.213Z,12.90
2018-10-19T18:00:36.986Z,13.00
2018-10-19T18:03:04.871Z,13.00
2018-10-19T18:05:32.577Z,13.00
2018-10-19T18:08:00.319Z,13.00
2018-10-19T18:10:28.238Z,13.00
2018-10-19T18:12:55.997Z,13.00
2018-10-19T18:15:23.836Z,13.00
2018-10-19T18:17:51.663Z,12.90
2018-10-19T18:20:19.441Z,12.80
2018-10-19T18:22:47.164Z,12.80
2018-10-19T18:25:14.970Z,12.80
2018-10-19T18:27:42.652Z,12.80
2018-10-19T18:30:10.504Z,12.80
2018-10-19T18:32:38.480Z,12.90
2018-10-19T18:35:08.138Z,12.80
2018-10-19T18:37:35.906Z,12.90
2018-10-19T18:40:05.046Z,12.80
2018-10-19T18:42:32.793Z,12.80
2018-10-19T18:45:00.724Z,12.80
2018-10-19T18:47:28.629Z,12.80
2018-10-19T18:49:56.546Z,12.80
2018-10-19T18:52:24.735Z,12.80
2018-10-19T18:54:52.549Z,12.80
2018-10-19T18:57:20.553Z,12.80
2018-10-19T18:59:48.574Z,12.90
2018-10-19T19:02:16.500Z,12.90
2018-10-19T19:04:44.411Z,12.90
2018-10-19T19:07:12.617Z,12.80
2018-10-19T19:09:43.854Z,12.90
2018-10-19T19:12:11.580Z,12.80
2018-10-19T19:14:39.611Z,12.80
2018-10-19T19:17:07.421Z,12.80
2018-10-19T19:19:35.402Z,12.70
2018-10-19T19:22:03.313Z,12.80
2018-10-19T19:24:37.364Z,12.70
2018-10-19T19:27:05.587Z,12.60
2018-10-19T19:29:33.397Z,12.70
2018-10-19T19:32:01.357Z,12.70
2018-10-19T19:34:31.211Z,12.60
2018-10-19T19:36:59.200Z,12.60
2018-10-19T19:39:27.084Z,12.70
2018-10-19T19:42:00.647Z,12.70
2018-10-19T19:44:28.396Z,12.70
2018-10-19T19:46:56.161Z,12.70
2018-10-19T19:49:29.812Z,12.80
2018-10-19T19:51:57.904Z,12.80
2018-10-19T19:54:25.798Z,12.80
2018-10-19T19:56:53.593Z,12.80
2018-10-19T19:59:21.286Z,12.80
2018-10-19T20:01:49.223Z,12.80
2018-10-19T20:04:17.045Z,12.70
2018-10-19T20:06:44.805Z,12.70
2018-10-19T20:09:13.278Z,12.70
2018-10-19T20:11:41.052Z,12.70
2018-10-19T20:14:09.282Z,12.60
2018-10-19T20:16:37.544Z,12.50
2018-10-19T20:19:05.683Z,12.50
2018-10-19T20:21:33.468Z,12.60
2018-10-19T20:24:01.347Z,12.50
2018-10-19T20:26:29.028Z,12.60
2018-10-19T20:28:56.906Z,12.50
2018-10-19T20:31:24.577Z,12.50
2018-10-19T20:33:52.385Z,12.50
2018-10-19T20:36:20.241Z,12.50
2018-10-19T20:38:48.146Z,12.50
2018-10-19T20:41:15.933Z,12.40
2018-10-19T20:43:43.975Z,12.40
2018-10-19T20:46:11.834Z,12.50
2018-10-19T20:48:39.557Z,12.40
2018-10-19T20:51:07.432Z,12.30
2018-10-19T20:53:35.258Z,12.20
2018-10-19T20:56:06.982Z,12.20
2018-10-19T20:58:34.796Z,12.20
2018-10-19T21:01:02.561Z,12.10
2018-10-19T21:03:30.379Z,12.10
2018-10-19T21:05:58.121Z,12.10
2018-10-19T21:08:25.951Z,12.10
2018-10-19T21:10:53.624Z,12.10
2018-10-19T21:13:21.597Z,12.10
2018-10-19T21:15:49.413Z,12.20
2018-10-19T21:18:17.286Z,12.30
2018-10-19T21:20:45.066Z,12.30
2018-10-19T21:23:12.982Z,12.30
2018-10-19T21:25:40.693Z,12.10
2018-10-19T21:28:10.584Z,12.00
2018-10-19T21:30:38.421Z,12.10
2018-10-19T21:33:06.243Z,12.00
2018-10-19T21:35:33.987Z,12.00
2018-10-19T21:38:02.690Z,11.80
2018-10-19T21:40:30.354Z,11.80
2018-10-19T21:42:58.026Z,11.80
2018-10-19T21:45:25.705Z,11.80
2018-10-19T21:47:53.509Z,11.90
2018-10-19T21:50:21.950Z,11.90
2018-10-19T21:52:51.120Z,11.80
2018-10-19T21:55:18.868Z,11.80
2018-10-19T21:57:46.528Z,11.90
2018-10-19T22:00:14.393Z,11.90
2018-10-19T22:02:42.122Z,11.90
2018-10-19T22:05:10.000Z,11.90
2018-10-19T22:07:38.221Z,11.90
2018-10-19T22:10:06.195Z,11.90
2018-10-19T22:12:34.210Z,11.90
2018-10-19T22:15:02.034Z,11.90
2018-10-19T22:17:29.884Z,11.80
2018-10-19T22:19:57.661Z,11.70
2018-10-19T22:22:25.466Z,11.70
2018-10-19T22:24:53.402Z,11.70
2018-10-19T22:27:21.107Z,11.80
2018-10-19T22:29:48.868Z,11.80
2018-10-19T22:32:16.563Z,11.80
2018-10-19T22:34:44.501Z,11.70
2018-10-19T22:37:12.243Z,11.70
2018-10-19T22:39:40.848Z,11.70
2018-10-19T22:42:08.590Z,11.80
2018-10-19T22:44:36.447Z,11.80
2018-10-19T22:47:04.382Z,11.70
2018-10-19T22:49:32.044Z,11.80
2018-10-19T22:51:59.711Z,11.70
2018-10-19T22:54:27.547Z,11.80
2018-10-19T22:56:55.292Z,11.90
2018-10-19T22:59:23.003Z,11.90
2018-10-19T23:01:50.907Z,11.90
2018-10-19T23:04:18.735Z,11.90
2018-10-19T23:06:46.755Z,11.90
2018-10-19T23:09:14.790Z,11.80
2018-10-19T23:11:42.575Z,11.80
2018-10-19T23:14:10.438Z,11.90
2018-10-19T23:16:38.535Z,11.80
2018-10-19T23:19:06.719Z,11.80
2018-10-19T23:21:34.583Z,11.80
2018-10-19T23:24:02.601Z,11.80
2018-10-19T23:26:30.284Z,11.90
2018-10-19T23:28:58.126Z,11.90
2018-10-19T23:31:25.962Z,11.80
2018-10-19T23:33:53.632Z,11.90
2018-10-19T23:36:22.098Z,11.90
2018-10-19T23:38:49.787Z,11.90
2018-10-19T23:41:17.474Z,11.80
2018-10-19T23:43:45.880Z,11.70
2018-10-19T23:46:13.764Z,11.70
2018-10-19T23:48:41.419Z,11.70
2018-10-19T23:51:09.142Z,11.70
2018-10-19T23:53:37.044Z,11.70
2018-10-19T23:56:04.948Z,11.60
2018-10-19T23:58:32.718Z,11.60
